createdAt,value
2023-05-02T00:00:13.433Z,96.28
2023-05-02T00:01:13.473Z,95.97
2023-05-02T00:02:13.417Z,95.36
2023-05-02T00:03:13.676Z,94.54
2023-05-02T00:04:13.640Z,94.33
2023-05-02T00:05:13.388Z,93.62
2023-05-02T00:06:13.420Z,93.62
2023-05-02T00:07:13.375Z,93.51
2023-05-02T00:08:13.370Z,93.37
2023-05-02T00:09:13.364Z,93.20
2023-05-02T00:10:13.387Z,93.00
2023-05-02T00:11:13.360Z,93.16
2023-05-02T00:12:13.348Z,93.00
2023-05-02T00:13:13.362Z,92.79
2023-05-02T00:14:13.420Z,92.55
2023-05-02T00:15:13.321Z,92.34
2023-05-02T00:16:13.365Z,92.34
2023-05-02T00:17:13.321Z,92.24
2023-05-02T00:18:13.394Z,92.14
2023-05-02T00:19:13.355Z,91.73
2023-05-02T00:20:13.311Z,91.11
2023-05-02T00:21:13.297Z,91.31
2023-05-02T00:22:13.273Z,91.52
2023-05-02T00:23:13.282Z,91.63
2023-05-02T00:24:13.279Z,91.52
2023-05-02T00:25:13.259Z,90.91
2023-05-02T00:26:13.280Z,90.60
2023-05-02T00:27:13.250Z,90.70
2023-05-02T00:28:13.241Z,91.01
2023-05-02T00:29:13.245Z,90.81
2023-05-02T00:30:13.229Z,90.09
2023-05-02T00:31:13.295Z,90.39
2023-05-02T00:32:13.236Z,91.01
2023-05-02T00:33:13.396Z,91.01
2023-05-02T00:34:13.185Z,90.91
2023-05-02T00:35:13.209Z,90.70
2023-05-02T00:36:13.183Z,90.60
2023-05-02T00:37:13.253Z,91.67
2023-05-02T00:38:13.167Z,91.67
2023-05-02T00:39:13.215Z,92.32
2023-05-02T00:40:13.176Z,93.45
2023-05-02T00:41:13.184Z,94.17
2023-05-02T00:42:13.163Z,94.37
2023-05-02T00:43:13.173Z,94.58
2023-05-02T00:44:13.150Z,94.78
2023-05-02T00:45:13.133Z,94.89
2023-05-02T00:46:13.212Z,95.20
2023-05-02T00:47:13.167Z,95.29
2023-05-02T00:48:13.155Z,95.65
2023-05-02T00:49:13.126Z,95.40
2023-05-02T00:50:13.086Z,95.54
2023-05-02T00:51:13.105Z,95.95
2023-05-02T00:52:13.083Z,95.86
2023-05-02T00:53:13.125Z,95.95
2023-05-02T00:54:13.121Z,95.34
2023-05-02T00:55:13.074Z,95.54
2023-05-02T00:56:13.050Z,95.75
2023-05-02T00:57:13.066Z,95.65
2023-05-02T00:58:20.069Z,94.83
2023-05-02T00:59:13.039Z,95.14
2023-05-02T01:00:13.021Z,95.03
2023-05-02T01:01:13.079Z,94.62
2023-05-02T01:02:13.095Z,94.62
2023-05-02T01:03:13.129Z,94.62
2023-05-02T01:04:13.109Z,94.42
2023-05-02T01:05:13.026Z,94.52
2023-05-02T01:06:13.034Z,94.21
2023-05-02T01:07:13.008Z,94.42
2023-05-02T01:08:12.966Z,94.11
2023-05-02T01:09:13.017Z,94.52
2023-05-02T01:10:12.969Z,94.42
2023-05-02T01:11:12.981Z,94.11
2023-05-02T01:12:12.946Z,93.90
2023-05-02T01:13:12.962Z,94.11
2023-05-02T01:14:12.944Z,94.01
2023-05-02T01:15:12.990Z,93.90
2023-05-02T01:16:12.968Z,93.70
2023-05-02T01:17:12.945Z,93.49
2023-05-02T01:18:13.082Z,93.29
2023-05-02T01:19:12.918Z,93.19
2023-05-02T01:20:12.909Z,93.35
2023-05-02T01:21:12.904Z,92.78
2023-05-02T01:22:12.874Z,93.19
2023-05-02T01:23:12.883Z,92.47
2023-05-02T01:24:12.872Z,92.36
2023-05-02T01:25:12.909Z,92.32
2023-05-02T01:26:12.847Z,91.91
2023-05-02T01:27:12.940Z,90.99
2023-05-02T01:28:12.886Z,90.89
2023-05-02T01:29:12.859Z,91.20
2023-05-02T01:30:12.840Z,89.76
2023-05-02T01:31:12.905Z,89.97
2023-05-02T01:32:12.829Z,90.13
2023-05-02T01:33:12.878Z,89.97
2023-05-02T01:34:12.804Z,89.62
2023-05-02T01:35:12.818Z,90.34
2023-05-02T01:36:12.814Z,90.37
2023-05-02T01:37:12.797Z,90.34
2023-05-02T01:38:12.780Z,90.13
2023-05-02T01:39:12.773Z,90.84
2023-05-02T01:40:12.759Z,91.87
2023-05-02T01:41:12.766Z,92.59
2023-05-02T01:42:12.759Z,93.15
2023-05-02T01:43:12.753Z,93.49
2023-05-02T01:44:12.734Z,93.49
2023-05-02T01:45:12.751Z,93.19
2023-05-02T01:46:12.768Z,93.25
2023-05-02T01:47:12.768Z,93.19
2023-05-02T01:48:12.735Z,92.98
2023-05-02T01:49:12.724Z,92.98
2023-05-02T01:50:12.715Z,93.08
2023-05-02T01:51:12.706Z,93.60
2023-05-02T01:52:12.703Z,93.49
2023-05-02T01:53:12.728Z,93.49
2023-05-02T01:54:12.683Z,93.85
2023-05-02T01:55:12.690Z,93.85
2023-05-02T01:56:12.658Z,93.85
2023-05-02T01:57:12.680Z,94.05
2023-05-02T01:58:12.655Z,94.36
2023-05-02T01:59:12.664Z,94.32
2023-05-02T02:00:12.646Z,94.73
2023-05-02T02:01:12.699Z,94.87
2023-05-02T02:02:12.677Z,94.87
2023-05-02T02:03:12.677Z,95.07
2023-05-02T02:04:12.669Z,94.98
2023-05-02T02:05:12.630Z,94.67
2023-05-02T02:06:12.658Z,95.18
2023-05-02T02:07:12.614Z,95.07
2023-05-02T02:08:12.603Z,94.93
2023-05-02T02:09:12.630Z,94.87
2023-05-02T02:10:12.594Z,94.36
2023-05-02T02:11:12.599Z,94.15
2023-05-02T02:12:12.600Z,94.67
2023-05-02T02:13:12.597Z,94.26
2023-05-02T02:14:12.589Z,94.42
2023-05-02T02:15:12.605Z,94.26
2023-05-02T02:16:12.613Z,94.36
2023-05-02T02:17:12.592Z,94.15
2023-05-02T02:18:12.572Z,94.15
2023-05-02T02:19:12.578Z,94.15
2023-05-02T02:20:12.519Z,94.05
2023-05-02T02:21:12.538Z,94.15
2023-05-02T02:22:12.511Z,93.85
2023-05-02T02:23:12.518Z,93.64
2023-05-02T02:24:12.549Z,94.05
2023-05-02T02:25:12.561Z,94.67
2023-05-02T02:26:12.504Z,94.15
2023-05-02T02:27:12.502Z,93.89
2023-05-02T02:28:12.480Z,93.99
2023-05-02T02:29:12.484Z,93.89
2023-05-02T02:30:12.487Z,94.04
2023-05-02T02:31:12.501Z,93.89
2023-05-02T02:32:12.454Z,94.24
2023-05-02T02:33:12.490Z,94.24
2023-05-02T02:34:12.458Z,94.45
2023-05-02T02:35:12.462Z,94.65
2023-05-02T02:36:12.457Z,94.34
2023-05-02T02:37:12.450Z,94.34
2023-05-02T02:38:12.454Z,94.65
2023-05-02T02:39:12.433Z,94.24
2023-05-02T02:40:12.422Z,94.76
2023-05-02T02:41:12.453Z,94.90
2023-05-02T02:42:12.415Z,94.45
2023-05-02T02:43:12.411Z,94.65
2023-05-02T02:44:13.702Z,94.49
2023-05-02T02:45:12.394Z,94.59
2023-05-02T02:46:12.426Z,94.49
2023-05-02T02:47:12.396Z,94.24
2023-05-02T02:48:12.410Z,94.08
2023-05-02T02:49:12.386Z,94.49
2023-05-02T02:50:12.352Z,94.49
2023-05-02T02:51:12.365Z,95.10
2023-05-02T02:52:12.349Z,95.62
2023-05-02T02:53:12.365Z,95.52
2023-05-02T02:54:25.474Z,96.23
2023-05-02T02:55:13.327Z,96.23
2023-05-02T02:56:12.304Z,96.55
2023-05-02T02:57:12.328Z,97.16
2023-05-02T02:58:12.301Z,98.08
2023-05-02T02:59:12.311Z,97.78
2023-05-02T03:00:12.284Z,97.99
2023-05-02T03:01:12.362Z,97.88
2023-05-02T03:02:12.338Z,96.48
2023-05-02T03:03:12.401Z,96.65
2023-05-02T03:04:12.326Z,96.39
2023-05-02T03:05:12.266Z,96.80
2023-05-02T03:06:12.285Z,96.39
2023-05-02T03:07:12.256Z,96.69
2023-05-02T03:08:12.245Z,96.39
2023-05-02T03:09:12.283Z,96.28
2023-05-02T03:10:12.236Z,97.05
2023-05-02T03:11:12.244Z,97.31
2023-05-02T03:12:12.217Z,97.92
2023-05-02T03:13:12.236Z,98.07
2023-05-02T03:14:12.213Z,97.97
2023-05-02T03:15:12.235Z,97.77
2023-05-02T03:16:12.238Z,97.82
2023-05-02T03:17:12.203Z,98.07
2023-05-02T03:18:12.280Z,98.07
2023-05-02T03:19:12.190Z,98.24
2023-05-02T03:20:12.185Z,98.18
2023-05-02T03:21:12.192Z,97.66
2023-05-02T03:22:12.186Z,97.77
2023-05-02T03:23:12.186Z,97.87
2023-05-02T03:24:12.146Z,97.92
2023-05-02T03:25:12.152Z,97.97
2023-05-02T03:26:12.154Z,97.82
2023-05-02T03:27:12.141Z,97.72
2023-05-02T03:28:12.122Z,97.82
2023-05-02T03:29:12.149Z,97.82
2023-05-02T03:30:12.114Z,97.92
2023-05-02T03:31:12.187Z,97.92
2023-05-02T03:32:12.144Z,97.06
2023-05-02T03:33:12.185Z,97.27
2023-05-02T03:34:12.087Z,97.37
2023-05-02T03:35:12.105Z,96.30
2023-05-02T03:36:12.091Z,95.68
2023-05-02T03:37:12.093Z,95.98
2023-05-02T03:38:12.066Z,95.68
2023-05-02T03:39:12.088Z,95.47
2023-05-02T03:40:12.073Z,95.78
2023-05-02T03:41:12.088Z,94.85
2023-05-02T03:42:12.039Z,94.96
2023-05-02T03:43:12.070Z,95.27
2023-05-02T03:44:12.024Z,95.78
2023-05-02T03:45:12.032Z,95.37
2023-05-02T03:46:12.085Z,94.96
2023-05-02T03:47:12.064Z,95.27
2023-05-02T03:48:12.091Z,95.78
2023-05-02T03:49:12.012Z,95.72
2023-05-02T03:50:11.995Z,95.68
2023-05-02T03:51:11.996Z,95.72
2023-05-02T03:52:11.980Z,95.68
2023-05-02T03:53:12.011Z,96.14
2023-05-02T03:54:11.995Z,96.14
2023-05-02T03:55:11.998Z,96.30
2023-05-02T03:56:11.968Z,96.23
2023-05-02T03:57:11.972Z,96.34
2023-05-02T03:58:11.952Z,95.83
2023-05-02T03:59:11.997Z,96.34
2023-05-02T04:00:11.941Z,96.14
2023-05-02T04:01:11.946Z,96.44
2023-05-02T04:02:11.950Z,96.34
2023-05-02T04:03:12.020Z,96.75
2023-05-02T04:04:11.945Z,96.34
2023-05-02T04:05:11.933Z,96.55
2023-05-02T04:06:11.934Z,96.85
2023-05-02T04:07:11.911Z,96.65
2023-05-02T04:08:11.891Z,96.95
2023-05-02T04:09:11.928Z,96.85
2023-05-02T04:10:11.884Z,97.06
2023-05-02T04:11:11.915Z,96.75
2023-05-02T04:12:11.868Z,97.16
2023-05-02T04:13:11.888Z,97.06
2023-05-02T04:14:11.867Z,97.47
2023-05-02T04:15:11.900Z,97.99
2023-05-02T04:16:11.863Z,97.67
2023-05-02T04:17:11.918Z,97.78
2023-05-02T04:18:11.901Z,97.67
2023-05-02T04:19:11.858Z,97.47
2023-05-02T04:20:11.849Z,97.99
2023-05-02T04:21:11.843Z,98.08
2023-05-02T04:22:11.812Z,97.88
2023-05-02T04:23:11.832Z,97.53
2023-05-02T04:24:11.812Z,98.35
2023-05-02T04:25:11.816Z,98.04
2023-05-02T04:26:11.802Z,97.78
2023-05-02T04:27:14.441Z,97.63
2023-05-02T04:28:11.782Z,97.53
2023-05-02T04:29:11.802Z,97.63
2023-05-02T04:30:11.761Z,97.73
2023-05-02T04:31:11.858Z,97.53
2023-05-02T04:32:11.763Z,96.91
2023-05-02T04:33:11.797Z,96.40
2023-05-02T04:34:11.770Z,96.81
2023-05-02T04:35:11.776Z,96.30
2023-05-02T04:36:11.744Z,96.35
2023-05-02T04:37:11.742Z,96.15
2023-05-02T04:38:11.732Z,96.25
2023-05-02T04:39:11.747Z,96.56
2023-05-02T04:40:11.710Z,96.35
2023-05-02T04:41:11.702Z,96.04
2023-05-02T04:42:11.708Z,95.53
2023-05-02T04:43:11.691Z,95.90
2023-05-02T04:44:11.694Z,95.28
2023-05-02T04:45:11.693Z,94.98
2023-05-02T04:46:11.701Z,95.18
2023-05-02T04:47:11.707Z,94.56
2023-05-02T04:48:11.699Z,94.62
2023-05-02T04:49:11.679Z,94.52
2023-05-02T04:50:11.649Z,94.52
2023-05-02T04:51:11.876Z,94.93
2023-05-02T04:52:11.632Z,95.03
2023-05-02T04:53:11.654Z,95.07
2023-05-02T04:54:11.617Z,94.52
2023-05-02T04:55:11.621Z,94.77
2023-05-02T04:56:11.627Z,95.44
2023-05-02T04:57:11.611Z,95.34
2023-05-02T04:58:11.593Z,94.89
2023-05-02T04:59:11.594Z,94.62
2023-05-02T05:00:11.580Z,93.96
2023-05-02T05:01:11.623Z,93.76
2023-05-02T05:02:11.586Z,93.35
2023-05-02T05:03:11.706Z,92.43
2023-05-02T05:04:11.638Z,92.32
2023-05-02T05:05:11.622Z,92.08
2023-05-02T05:06:11.560Z,92.18
2023-05-02T05:07:11.548Z,90.75
2023-05-02T05:08:11.521Z,90.84
2023-05-02T05:09:11.545Z,91.31
2023-05-02T05:10:11.558Z,91.31
2023-05-02T05:11:11.563Z,91.52
2023-05-02T05:12:11.518Z,91.42
2023-05-02T05:13:11.516Z,91.42
2023-05-02T05:14:11.487Z,90.50
2023-05-02T05:15:11.505Z,91.22
2023-05-02T05:16:11.532Z,91.42
2023-05-02T05:17:11.499Z,91.11
2023-05-02T05:18:11.548Z,91.42
2023-05-02T05:19:11.470Z,90.60
2023-05-02T05:20:11.450Z,89.74
2023-05-02T05:21:11.460Z,90.15
2023-05-02T05:22:11.452Z,89.53
2023-05-02T05:23:11.443Z,90.77
2023-05-02T05:24:11.421Z,90.97
2023-05-02T05:25:11.454Z,89.64
2023-05-02T05:26:11.405Z,90.91
2023-05-02T05:27:11.449Z,90.66
2023-05-02T05:28:11.406Z,90.39
2023-05-02T05:29:11.412Z,90.39
2023-05-02T05:30:11.407Z,90.39
2023-05-02T05:31:11.403Z,90.15
2023-05-02T05:32:11.509Z,90.36
2023-05-02T05:33:11.433Z,90.15
2023-05-02T05:34:11.433Z,90.31
2023-05-02T05:35:11.400Z,89.94
2023-05-02T05:36:11.336Z,90.05
2023-05-02T05:37:11.358Z,90.86
2023-05-02T05:38:11.356Z,90.05
2023-05-02T05:39:11.344Z,89.43
2023-05-02T05:40:11.344Z,89.74
2023-05-02T05:41:11.439Z,89.74
2023-05-02T05:42:11.304Z,90.21
2023-05-02T05:43:11.308Z,89.59
2023-05-02T05:44:11.309Z,90.05
2023-05-02T05:45:11.296Z,89.90
2023-05-02T05:46:11.279Z,88.88
2023-05-02T05:47:11.360Z,88.53
2023-05-02T05:48:11.303Z,88.33
2023-05-02T05:49:11.322Z,88.08
2023-05-02T05:50:11.276Z,86.61
2023-05-02T05:51:11.275Z,85.04
2023-05-02T05:52:11.247Z,85.45
2023-05-02T05:53:11.242Z,84.83
2023-05-02T05:54:11.236Z,84.49
2023-05-02T05:55:11.254Z,83.84
2023-05-02T05:56:11.215Z,82.82
2023-05-02T05:57:11.232Z,82.27
2023-05-02T05:58:11.204Z,81.07
2023-05-02T05:59:11.216Z,78.82
2023-05-02T06:00:11.207Z,76.41
2023-05-02T06:01:11.218Z,75.97
2023-05-02T06:02:11.266Z,75.02
2023-05-02T06:03:11.333Z,74.01
2023-05-02T06:04:11.272Z,74.14
2023-05-02T06:05:11.291Z,74.24
2023-05-02T06:06:11.181Z,75.29
2023-05-02T06:07:11.163Z,75.87
2023-05-02T06:08:11.146Z,77.09
2023-05-02T06:09:11.141Z,77.56
2023-05-02T06:10:11.151Z,77.40
2023-05-02T06:11:11.135Z,78.31
2023-05-02T06:12:11.095Z,77.29
2023-05-02T06:13:11.139Z,74.88
2023-05-02T06:14:11.111Z,74.07
2023-05-02T06:15:11.104Z,74.31
2023-05-02T06:16:11.100Z,75.22
2023-05-02T06:17:11.082Z,72.89
2023-05-02T06:18:11.098Z,70.15
2023-05-02T06:19:11.097Z,69.01
2023-05-02T06:20:11.163Z,68.67
2023-05-02T06:21:11.050Z,67.39
2023-05-02T06:22:11.025Z,65.81
2023-05-02T06:23:11.033Z,66.61
2023-05-02T06:24:11.027Z,67.01
2023-05-02T06:25:11.014Z,70.25
2023-05-02T06:26:11.012Z,74.48
2023-05-02T06:27:11.005Z,77.16
2023-05-02T06:28:10.987Z,76.61
2023-05-02T06:29:11.004Z,76.82
2023-05-02T06:30:10.962Z,80.50
2023-05-02T06:31:11.020Z,80.54
2023-05-02T06:32:10.943Z,79.34
2023-05-02T06:33:10.980Z,80.19
2023-05-02T06:34:10.927Z,79.24
2023-05-02T06:35:10.948Z,78.80
2023-05-02T06:36:10.925Z,77.78
2023-05-02T06:37:10.939Z,75.46
2023-05-02T06:38:10.891Z,75.87
2023-05-02T06:39:10.948Z,75.97
2023-05-02T06:40:10.888Z,75.97
2023-05-02T06:41:10.893Z,75.67
2023-05-02T06:42:10.868Z,73.70
2023-05-02T06:43:10.870Z,73.66
2023-05-02T06:44:10.860Z,73.22
2023-05-02T06:45:10.867Z,71.37
2023-05-02T06:46:10.842Z,67.72
2023-05-02T06:47:10.938Z,71.30
2023-05-02T06:48:10.827Z,71.91
2023-05-02T06:49:10.815Z,66.52
2023-05-02T06:50:10.813Z,65.33
2023-05-02T06:51:10.817Z,64.16
2023-05-02T06:52:10.792Z,65.83
2023-05-02T06:53:10.812Z,68.56
2023-05-02T06:54:10.788Z,66.28
2023-05-02T06:55:10.772Z,60.41
2023-05-02T06:56:10.760Z,61.14
2023-05-02T06:57:10.742Z,64.09
2023-05-02T06:58:10.721Z,63.98
2023-05-02T06:59:17.795Z,65.19
2023-05-02T07:00:10.703Z,65.73
2023-05-02T07:01:10.802Z,65.96
2023-05-02T07:02:10.713Z,68.43
2023-05-02T07:03:10.716Z,68.26
2023-05-02T07:04:10.721Z,66.33
2023-05-02T07:05:10.703Z,68.08
2023-05-02T07:06:10.693Z,68.39
2023-05-02T07:07:10.695Z,70.89
2023-05-02T07:08:10.671Z,70.01
2023-05-02T07:09:10.643Z,68.32
2023-05-02T07:10:10.612Z,67.95
2023-05-02T07:11:10.645Z,69.37
2023-05-02T07:12:10.805Z,67.08
2023-05-02T07:13:10.632Z,66.40
2023-05-02T07:14:10.635Z,66.33
2023-05-02T07:15:10.588Z,67.51
2023-05-02T07:16:10.676Z,67.41
2023-05-02T07:17:10.749Z,67.55
2023-05-02T07:18:10.623Z,69.81
2023-05-02T07:19:10.576Z,69.27
2023-05-02T07:20:10.563Z,66.70
2023-05-02T07:21:10.550Z,66.37
2023-05-02T07:22:10.538Z,68.08
2023-05-02T07:23:10.545Z,68.29
2023-05-02T07:24:10.541Z,69.95
2023-05-02T07:25:10.564Z,68.26
2023-05-02T07:26:10.487Z,67.48
2023-05-02T07:27:10.490Z,64.21
2023-05-02T07:28:10.462Z,66.44
2023-05-02T07:29:10.520Z,68.46
2023-05-02T07:30:10.463Z,68.96
2023-05-02T07:31:10.456Z,64.21
2023-05-02T07:32:10.487Z,64.18
2023-05-02T07:33:10.465Z,64.04
2023-05-02T07:34:10.428Z,64.48
2023-05-02T07:35:10.456Z,65.26
2023-05-02T07:36:10.424Z,63.44
2023-05-02T07:37:10.421Z,64.11
2023-05-02T07:38:10.412Z,65.56
2023-05-02T07:39:10.393Z,65.25
2023-05-02T07:40:10.389Z,64.44
2023-05-02T07:41:10.405Z,66.46
2023-05-02T07:42:10.380Z,68.59
2023-05-02T07:43:11.238Z,66.43
2023-05-02T07:44:10.373Z,66.53
2023-05-02T07:45:10.356Z,66.13
2023-05-02T07:46:10.413Z,66.26
2023-05-02T07:47:10.335Z,66.08
2023-05-02T07:48:10.385Z,67.84
2023-05-02T07:49:10.330Z,67.67
2023-05-02T07:50:10.300Z,68.45
2023-05-02T07:51:10.297Z,67.91
2023-05-02T07:52:10.300Z,69.74
2023-05-02T07:53:10.306Z,69.23
2023-05-02T07:54:10.273Z,68.35
2023-05-02T07:55:10.270Z,70.28
2023-05-02T07:56:10.272Z,70.79
2023-05-02T07:57:10.256Z,71.64
2023-05-02T07:58:10.245Z,72.04
2023-05-02T07:59:10.285Z,72.89
2023-05-02T08:00:10.312Z,72.41
2023-05-02T08:01:10.219Z,72.58
2023-05-02T08:02:10.236Z,72.04
2023-05-02T08:03:10.308Z,71.84
2023-05-02T08:04:10.469Z,73.10
2023-05-02T08:05:10.332Z,73.30
2023-05-02T08:06:10.224Z,73.33
2023-05-02T08:07:10.160Z,74.86
2023-05-02T08:08:10.164Z,74.49
2023-05-02T08:09:10.165Z,74.45
2023-05-02T08:10:10.181Z,73.80
2023-05-02T08:11:10.145Z,72.96
2023-05-02T08:12:10.143Z,72.65
2023-05-02T08:13:10.128Z,71.97
2023-05-02T08:14:10.119Z,71.09
2023-05-02T08:15:10.115Z,72.04
2023-05-02T08:16:10.151Z,71.67
2023-05-02T08:17:10.099Z,72.78
2023-05-02T08:18:10.124Z,72.69
2023-05-02T08:19:10.105Z,72.14
2023-05-02T08:20:10.073Z,72.31
2023-05-02T08:21:10.052Z,73.02
2023-05-02T08:22:10.052Z,73.02
2023-05-02T08:23:10.056Z,70.75
2023-05-02T08:24:10.048Z,70.96
2023-05-02T08:25:10.101Z,71.91
2023-05-02T08:26:10.020Z,72.01
2023-05-02T08:27:10.017Z,71.91
2023-05-02T08:28:09.983Z,71.91
2023-05-02T08:29:10.004Z,72.85
2023-05-02T08:30:09.979Z,70.32
2023-05-02T08:31:10.042Z,66.40
2023-05-02T08:32:09.990Z,65.76
2023-05-02T08:33:09.985Z,66.09
2023-05-02T08:34:09.949Z,65.42
2023-05-02T08:35:09.989Z,64.67
2023-05-02T08:36:09.955Z,64.24
2023-05-02T08:37:09.948Z,62.26
2023-05-02T08:38:09.935Z,58.80
2023-05-02T08:39:09.912Z,55.21
2023-05-02T08:40:09.897Z,54.96
2023-05-02T08:41:09.915Z,56.32
2023-05-02T08:42:09.908Z,56.07
2023-05-02T08:43:09.910Z,55.03
2023-05-02T08:44:09.858Z,53.52
2023-05-02T08:45:09.902Z,52.84
2023-05-02T08:46:09.835Z,55.71
2023-05-02T08:47:09.920Z,54.93
2023-05-02T08:48:09.866Z,53.27
2023-05-02T08:49:09.851Z,55.69
2023-05-02T08:50:09.855Z,58.40
2023-05-02T08:51:09.876Z,58.80
2023-05-02T08:52:09.798Z,59.08
2023-05-02T08:53:09.828Z,59.25
2023-05-02T08:54:09.789Z,59.42
2023-05-02T08:55:09.812Z,58.73
2023-05-02T08:56:09.760Z,61.63
2023-05-02T08:57:09.796Z,63.29
2023-05-02T08:58:09.751Z,63.76
2023-05-02T08:59:09.760Z,62.72
2023-05-02T09:00:09.751Z,61.58
2023-05-02T09:01:09.771Z,61.37
2023-05-02T09:02:09.715Z,62.31
2023-05-02T09:03:09.883Z,62.69
2023-05-02T09:04:09.725Z,63.18
2023-05-02T09:05:09.718Z,64.50
2023-05-02T09:06:09.716Z,63.83
2023-05-02T09:07:10.897Z,62.41
2023-05-02T09:08:09.677Z,63.02
2023-05-02T09:09:10.158Z,60.85
2023-05-02T09:10:09.677Z,58.19
2023-05-02T09:11:09.667Z,56.57
2023-05-02T09:12:09.639Z,56.17
2023-05-02T09:13:09.652Z,54.61
2023-05-02T09:14:09.687Z,54.55
2023-05-02T09:15:09.638Z,51.94
2023-05-02T09:16:09.619Z,51.06
2023-05-02T09:17:09.765Z,49.01
2023-05-02T09:18:09.596Z,47.93
2023-05-02T09:19:09.627Z,51.66
2023-05-02T09:20:09.595Z,55.41
2023-05-02T09:21:09.580Z,58.23
2023-05-02T09:22:09.585Z,58.43
2023-05-02T09:23:09.577Z,58.40
2023-05-02T09:24:09.543Z,56.23
2023-05-02T09:25:09.585Z,55.09
2023-05-02T09:26:09.518Z,55.49
2023-05-02T09:27:09.530Z,56.27
2023-05-02T09:28:09.533Z,57.82
2023-05-02T09:29:09.519Z,57.06
2023-05-02T09:30:09.524Z,56.70
2023-05-02T09:31:09.577Z,54.76
2023-05-02T09:32:09.596Z,54.81
2023-05-02T09:33:09.585Z,53.30
2023-05-02T09:34:09.456Z,51.26
2023-05-02T09:35:09.482Z,51.89
2023-05-02T09:36:09.552Z,56.15
2023-05-02T09:37:09.451Z,56.88
2023-05-02T09:38:09.496Z,58.65
2023-05-02T09:39:09.432Z,58.63
2023-05-02T09:40:09.427Z,58.80
2023-05-02T09:41:09.437Z,58.70
2023-05-02T09:42:09.439Z,58.80
2023-05-02T09:43:09.407Z,58.80
2023-05-02T09:44:09.379Z,59.92
2023-05-02T09:45:09.401Z,61.47
2023-05-02T09:46:09.485Z,62.62
2023-05-02T09:47:09.406Z,62.11
2023-05-02T09:48:09.373Z,61.88
2023-05-02T09:49:09.386Z,61.55
2023-05-02T09:50:09.338Z,62.08
2023-05-02T09:51:09.351Z,62.69
2023-05-02T09:52:09.379Z,61.62
2023-05-02T09:53:09.328Z,62.21
2023-05-02T09:54:09.319Z,63.63
2023-05-02T09:55:09.326Z,62.35
2023-05-02T09:56:09.301Z,60.94
2023-05-02T09:57:09.321Z,60.53
2023-05-02T09:58:09.283Z,60.86
2023-05-02T09:59:09.276Z,62.26
2023-05-02T10:00:09.273Z,60.71
2023-05-02T10:01:09.312Z,60.05
2023-05-02T10:02:09.247Z,58.20
2023-05-02T10:03:09.300Z,58.73
2023-05-02T10:04:09.229Z,58.73
2023-05-02T10:05:09.220Z,59.18
2023-05-02T10:06:09.284Z,58.60
2023-05-02T10:07:09.241Z,59.03
2023-05-02T10:08:09.209Z,56.76
2023-05-02T10:09:09.194Z,56.48
2023-05-02T10:10:09.221Z,57.59
2023-05-02T10:11:09.200Z,55.98
2023-05-02T10:12:09.163Z,57.54
2023-05-02T10:13:09.171Z,60.30
2023-05-02T10:14:09.145Z,60.20
2023-05-02T10:15:09.179Z,60.58
2023-05-02T10:16:09.146Z,59.11
2023-05-02T10:17:09.139Z,57.23
2023-05-02T10:18:09.163Z,56.70
2023-05-02T10:19:09.117Z,55.57
2023-05-02T10:20:09.095Z,55.16
2023-05-02T10:21:09.122Z,58.09
2023-05-02T10:22:09.102Z,59.06
2023-05-02T10:23:09.100Z,60.13
2023-05-02T10:24:09.085Z,59.39
2023-05-02T10:25:09.082Z,59.80
2023-05-02T10:26:09.082Z,59.06
2023-05-02T10:27:09.092Z,58.33
2023-05-02T10:28:09.022Z,58.50
2023-05-02T10:29:09.055Z,57.89
2023-05-02T10:30:09.047Z,57.62
2023-05-02T10:31:09.090Z,59.75
2023-05-02T10:32:09.010Z,60.86
2023-05-02T10:33:09.075Z,60.53
2023-05-02T10:34:08.983Z,60.89
2023-05-02T10:35:09.012Z,62.52
2023-05-02T10:36:08.982Z,62.14
2023-05-02T10:37:08.992Z,62.07
2023-05-02T10:38:08.943Z,61.97
2023-05-02T10:39:08.960Z,62.17
2023-05-02T10:40:08.941Z,62.07
2023-05-02T10:41:08.957Z,60.58
2023-05-02T10:42:08.935Z,62.46
2023-05-02T10:43:08.931Z,62.56
2023-05-02T10:44:08.921Z,64.73
2023-05-02T10:45:08.903Z,64.18
2023-05-02T10:46:08.929Z,64.18
2023-05-02T10:47:08.891Z,62.59
2023-05-02T10:48:08.934Z,62.56
2023-05-02T10:49:08.870Z,62.94
2023-05-02T10:50:08.848Z,62.33
2023-05-02T10:51:08.854Z,63.01
2023-05-02T10:52:08.841Z,61.99
2023-05-02T10:53:08.855Z,62.20
2023-05-02T10:54:08.816Z,62.53
2023-05-02T10:55:08.826Z,63.34
2023-05-02T10:56:08.824Z,63.72
2023-05-02T10:57:08.831Z,62.37
2023-05-02T10:58:08.809Z,62.45
2023-05-02T10:59:08.783Z,60.89
2023-05-02T11:00:08.777Z,59.99
2023-05-02T11:01:08.821Z,60.66
2023-05-02T11:02:08.781Z,61.00
2023-05-02T11:03:09.004Z,59.88
2023-05-02T11:04:08.773Z,61.43
2023-05-02T11:05:08.748Z,61.33
2023-05-02T11:06:08.782Z,62.07
2023-05-02T11:07:08.717Z,63.06
2023-05-02T11:08:08.724Z,61.94
2023-05-02T11:09:08.694Z,63.01
2023-05-02T11:10:08.696Z,64.06
2023-05-02T11:11:08.702Z,63.01
2023-05-02T11:12:08.677Z,62.51
2023-05-02T11:13:08.681Z,62.48
2023-05-02T11:14:08.652Z,61.56
2023-05-02T11:15:08.680Z,62.34
2023-05-02T11:16:08.659Z,62.54
2023-05-02T11:17:08.666Z,61.91
2023-05-02T11:18:08.705Z,61.37
2023-05-02T11:19:08.653Z,60.84
2023-05-02T11:20:08.656Z,62.01
2023-05-02T11:21:08.638Z,61.98
2023-05-02T11:22:08.585Z,61.88
2023-05-02T11:23:08.589Z,60.79
2023-05-02T11:24:08.593Z,60.69
2023-05-02T11:25:08.571Z,61.60
2023-05-02T11:26:08.554Z,62.01
2023-05-02T11:27:08.546Z,62.45
2023-05-02T11:28:08.529Z,62.31
2023-05-02T11:29:08.555Z,62.92
2023-05-02T11:30:08.560Z,63.63
2023-05-02T11:31:08.724Z,63.83
2023-05-02T11:32:08.601Z,69.34
2023-05-02T11:33:08.588Z,69.51
2023-05-02T11:34:08.504Z,71.47
2023-05-02T11:35:08.503Z,72.85
2023-05-02T11:36:08.467Z,74.48
2023-05-02T11:37:08.485Z,72.85
2023-05-02T11:38:08.459Z,74.92
2023-05-02T11:39:08.453Z,75.43
2023-05-02T11:40:08.419Z,73.90
2023-05-02T11:41:08.525Z,75.22
2023-05-02T11:42:08.430Z,77.25
2023-05-02T11:43:08.417Z,78.67
2023-05-02T11:44:08.442Z,75.83
2023-05-02T11:45:08.417Z,77.25
2023-05-02T11:46:08.425Z,78.27
2023-05-02T11:47:08.386Z,75.49
2023-05-02T11:48:08.500Z,78.55
2023-05-02T11:49:09.352Z,77.19
2023-05-02T11:50:08.399Z,76.95
2023-05-02T11:51:08.388Z,78.51
2023-05-02T11:52:08.391Z,77.36
2023-05-02T11:53:08.364Z,77.56
2023-05-02T11:54:08.354Z,78.14
2023-05-02T11:55:09.644Z,78.99
2023-05-02T11:56:08.319Z,74.07
2023-05-02T11:57:08.328Z,74.62
2023-05-02T11:58:08.312Z,75.02
2023-05-02T11:59:08.325Z,77.47
2023-05-02T12:00:08.330Z,75.73
2023-05-02T12:01:09.514Z,75.30
2023-05-02T12:02:08.382Z,77.53
2023-05-02T12:03:08.496Z,76.18
2023-05-02T12:04:08.440Z,78.92
2023-05-02T12:05:08.340Z,79.27
2023-05-02T12:06:08.377Z,78.25
2023-05-02T12:07:10.218Z,77.37
2023-05-02T12:08:08.316Z,77.20
2023-05-02T12:09:08.246Z,77.40
2023-05-02T12:10:08.189Z,78.63
2023-05-02T12:11:08.204Z,81.68
2023-05-02T12:12:08.172Z,78.53
2023-05-02T12:13:10.051Z,78.02
2023-05-02T12:14:08.192Z,78.02
2023-05-02T12:15:08.207Z,77.85
2023-05-02T12:16:08.183Z,80.64
2023-05-02T12:17:08.139Z,79.99
2023-05-02T12:18:08.165Z,81.93
2023-05-02T12:19:08.122Z,82.03
2023-05-02T12:20:08.102Z,79.95
2023-05-02T12:21:08.164Z,80.36
2023-05-02T12:22:08.118Z,81.95
2023-05-02T12:23:08.100Z,80.52
2023-05-02T12:24:08.064Z,80.16
2023-05-02T12:25:08.089Z,82.76
2023-05-02T12:26:08.074Z,79.61
2023-05-02T12:27:08.089Z,79.77
2023-05-02T12:28:08.044Z,79.57
2023-05-02T12:29:08.097Z,78.93
2023-05-02T12:30:08.065Z,79.14
2023-05-02T12:31:08.060Z,76.90
2023-05-02T12:32:08.065Z,77.51
2023-05-02T12:33:08.107Z,77.61
2023-05-02T12:34:08.008Z,79.14
2023-05-02T12:35:08.017Z,76.35
2023-05-02T12:36:07.998Z,77.37
2023-05-02T12:37:07.991Z,76.08
2023-05-02T12:38:08.004Z,77.91
2023-05-02T12:39:07.989Z,79.03
2023-05-02T12:40:07.940Z,76.39
2023-05-02T12:41:07.976Z,75.91
2023-05-02T12:42:07.986Z,75.67
2023-05-02T12:43:07.936Z,75.09
2023-05-02T12:44:08.082Z,74.62
2023-05-02T12:45:07.939Z,75.43
2023-05-02T12:46:07.928Z,75.33
2023-05-02T12:47:08.177Z,75.20
2023-05-02T12:48:07.909Z,74.45
2023-05-02T12:49:07.910Z,75.37
2023-05-02T12:50:07.895Z,74.85
2023-05-02T12:51:08.036Z,74.28
2023-05-02T12:52:07.870Z,74.52